createdAt,value
2023-05-18T00:00:29.191Z,6.8
2023-05-18T00:06:39.892Z,7.1
2023-05-18T00:11:36.525Z,6.9
2023-05-18T00:16:33.128Z,6.7
2023-05-18T00:21:29.511Z,6.6
2023-05-18T00:27:40.241Z,6.6
2023-05-18T00:32:36.829Z,6.7
2023-05-18T00:37:33.351Z,6.7
2023-05-18T00:42:29.788Z,6.7
2023-05-18T00:48:40.445Z,6.3
2023-05-18T00:53:37.015Z,6.2
2023-05-18T00:58:33.588Z,6.4
2023-05-18T01:03:30.082Z,6.3
2023-05-18T01:09:40.634Z,6.2
2023-05-18T01:14:37.262Z,6
2023-05-18T01:19:33.768Z,5.9
2023-05-18T01:24:30.257Z,5.8
2023-05-18T01:30:41.062Z,5.8
2023-05-18T01:35:37.610Z,5.8
2023-05-18T01:40:34.027Z,5.9
2023-05-18T01:45:30.735Z,5.7
2023-05-18T01:51:41.206Z,5.8
2023-05-18T01:56:37.805Z,5.7
2023-05-18T02:01:34.453Z,5.8
2023-05-18T02:06:30.794Z,5.7
2023-05-18T02:12:41.453Z,5.6
2023-05-18T02:17:38.264Z,5.4
2023-05-18T02:22:34.618Z,5.4
2023-05-18T02:27:31.056Z,5.4
2023-05-18T02:33:41.671Z,5.1
2023-05-18T02:38:38.274Z,5
2023-05-18T02:43:34.780Z,4.7
2023-05-18T02:48:31.284Z,4.9
2023-05-18T02:54:41.963Z,4.8
2023-05-18T02:59:38.512Z,4.7
2023-05-18T03:04:35.062Z,4.5
2023-05-18T03:09:31.516Z,4.6
2023-05-18T03:15:42.314Z,4.6
2023-05-18T03:20:38.773Z,4.6
2023-05-18T03:25:35.277Z,4.5
2023-05-18T03:30:31.827Z,4.6
2023-05-18T03:35:28.693Z,4.7
2023-05-18T03:41:39.027Z,4.7
2023-05-18T03:46:35.665Z,4.5
2023-05-18T03:51:32.059Z,4.5
2023-05-18T03:56:28.626Z,4.6
2023-05-18T04:02:39.414Z,4.6
2023-05-18T04:07:36.242Z,4.4
2023-05-18T04:12:32.444Z,4.6
2023-05-18T04:17:28.899Z,4.6
2023-05-18T04:23:39.641Z,4.8
2023-05-18T04:33:32.744Z,4.9
2023-05-18T04:38:29.146Z,5
2023-05-18T04:44:39.802Z,5.5
2023-05-18T04:49:36.454Z,5.5
2023-05-18T04:54:32.917Z,5.6
2023-05-18T05:05:40.146Z,6
2023-05-18T05:10:36.690Z,6.2
2023-05-18T05:15:33.403Z,6.4
2023-05-18T05:20:30.016Z,6.6
2023-05-18T05:26:40.325Z,6.7
2023-05-18T05:31:36.927Z,7
2023-05-18T05:36:33.477Z,7
2023-05-18T05:41:31.757Z,7.1
2023-05-18T05:47:40.619Z,7.4
2023-05-18T05:52:37.168Z,7.8
2023-05-18T05:57:33.746Z,7.9
2023-05-18T06:02:30.294Z,8.2
2023-05-18T06:08:40.823Z,8.6
2023-05-18T06:13:37.407Z,8.8
2023-05-18T06:18:33.957Z,8.9
2023-05-18T06:23:30.418Z,9.3
2023-05-18T06:29:41.606Z,9.6
2023-05-18T06:33:31.708Z,9.5
2023-05-18T06:39:42.399Z,9.8
2023-05-18T06:44:38.940Z,10.2
2023-05-18T06:49:35.499Z,10.1
2023-05-18T06:54:31.980Z,10.6
2023-05-18T07:00:42.733Z,10.9
2023-05-18T07:05:39.834Z,11.4
2023-05-18T07:10:35.736Z,11
2023-05-18T07:15:32.520Z,11.4
2023-05-18T07:20:28.764Z,11.4
2023-05-18T07:26:39.487Z,11.8
2023-05-18T07:31:36.430Z,11.9
2023-05-18T07:36:32.530Z,12.2
2023-05-18T07:41:29.129Z,12.6
2023-05-18T07:47:39.742Z,12.7
2023-05-18T07:52:36.226Z,13.3
2023-05-18T07:57:32.871Z,12.8
2023-05-18T08:08:39.968Z,13.1
2023-05-18T08:13:36.513Z,13.2
2023-05-18T08:18:33.088Z,13.5
2023-05-18T08:23:29.560Z,13.9
2023-05-18T08:29:40.207Z,14.4
2023-05-18T08:34:36.875Z,14.9
2023-05-18T08:39:33.284Z,13.8
2023-05-18T08:44:29.825Z,14.1
2023-05-18T08:50:40.547Z,14.1
2023-05-18T08:55:37.275Z,14.7
2023-05-18T09:00:33.944Z,14.3
2023-05-18T09:05:30.338Z,15.5
2023-05-18T09:11:40.961Z,15.1
2023-05-18T09:16:37.397Z,14.8
2023-05-18T09:21:33.893Z,14.9
2023-05-18T09:32:41.060Z,16.5
2023-05-18T09:37:37.640Z,16.6
2023-05-18T09:42:34.162Z,17.4
2023-05-18T09:47:30.616Z,18.1
2023-05-18T09:53:41.367Z,17.6
2023-05-18T09:58:37.885Z,17.7
2023-05-18T10:03:34.365Z,17.5
2023-05-18T10:08:30.870Z,16.6
2023-05-18T10:14:41.550Z,16.7
2023-05-18T10:19:38.099Z,16.3
2023-05-18T10:24:34.720Z,17.7
2023-05-18T10:29:31.129Z,18.5
2023-05-18T10:35:41.932Z,17.8
2023-05-18T10:40:38.404Z,16.8
2023-05-18T10:45:34.965Z,16.2
2023-05-18T10:50:31.584Z,17.4
2023-05-18T10:55:27.959Z,18
2023-05-18T11:01:38.703Z,17.2
2023-05-18T11:06:35.192Z,17.3
2023-05-18T11:11:31.684Z,18.2
2023-05-18T11:17:42.401Z,18.7
2023-05-18T11:22:38.927Z,18.9
2023-05-18T11:27:35.435Z,18.4
2023-05-18T11:32:32.018Z,19
2023-05-18T11:38:42.684Z,19.1
2023-05-18T11:43:39.172Z,20.1
2023-05-18T11:48:35.901Z,20.3
2023-05-18T11:53:32.236Z,20.6
2023-05-18T11:58:28.774Z,20.4
2023-05-18T12:04:40.063Z,20.5
2023-05-18T12:09:35.959Z,22.9
2023-05-18T12:14:32.504Z,24.4
2023-05-18T12:19:29.081Z,24
2023-05-18T12:25:39.687Z,22.8
2023-05-18T12:30:36.596Z,22.9
2023-05-18T12:35:33.430Z,24.2
2023-05-18T12:40:29.299Z,25.6
2023-05-18T12:46:39.976Z,24.1
2023-05-18T12:51:36.486Z,26
2023-05-18T12:56:33.071Z,25.9
2023-05-18T13:01:29.559Z,26.9
2023-05-18T13:07:40.254Z,26.6
2023-05-18T13:12:36.764Z,27.5
2023-05-18T13:17:33.415Z,26.3
2023-05-18T13:22:29.826Z,26.2
2023-05-18T13:28:40.507Z,27.6
2023-05-18T13:33:37.029Z,27.9
2023-05-18T13:38:33.617Z,28.9
2023-05-18T13:43:30.172Z,28.2
2023-05-18T13:49:40.739Z,28.5
2023-05-18T13:54:37.294Z,29
2023-05-18T13:59:33.875Z,28.2
2023-05-18T14:10:41.076Z,29.3
2023-05-18T14:15:37.653Z,28.6
2023-05-18T14:20:34.496Z,30.2
2023-05-18T14:25:30.682Z,30.8
2023-05-18T14:31:41.403Z,30.6
2023-05-18T14:36:37.922Z,31.3
2023-05-18T14:41:34.450Z,28.4
2023-05-18T14:46:31.214Z,30
2023-05-18T14:51:35.733Z,28.2
2023-05-18T14:56:32.238Z,30.5
2023-05-18T15:02:43.038Z,30.6
2023-05-18T15:07:39.423Z,32.9
2023-05-18T15:12:36.064Z,30.5
2023-05-18T15:17:32.522Z,29.3
2023-05-18T15:22:29.147Z,29.4
2023-05-18T15:28:39.685Z,28.5
2023-05-18T15:38:32.760Z,22.9
2023-05-18T15:43:29.316Z,29
2023-05-18T15:49:40.078Z,30.7
2023-05-18T15:54:36.519Z,33.9
2023-05-18T15:59:33.018Z,31.1
2023-05-18T16:04:29.595Z,31.2
2023-05-18T16:10:40.285Z,26
2023-05-18T16:15:36.773Z,23.1
2023-05-18T16:20:33.672Z,24.7
2023-05-18T16:25:29.854Z,23.3
2023-05-18T16:31:40.527Z,25.7
2023-05-18T16:36:37.145Z,30.7
2023-05-18T16:41:33.689Z,31.6
2023-05-18T16:46:30.200Z,26.6
2023-05-18T16:52:40.867Z,24.3
2023-05-18T16:57:37.339Z,28.3
2023-05-18T17:02:36.138Z,30.7
2023-05-18T17:07:30.326Z,30.4
2023-05-18T17:13:41.040Z,29
2023-05-18T17:18:37.787Z,28.2
2023-05-18T17:23:34.215Z,27.1
2023-05-18T17:28:30.654Z,23.9
2023-05-18T17:34:41.335Z,22.9
2023-05-18T17:39:37.857Z,21.7
2023-05-18T17:44:34.396Z,21.3
2023-05-18T17:49:30.979Z,20.7
2023-05-18T17:55:41.584Z,19.4
2023-05-18T18:00:38.194Z,18.9
2023-05-18T18:05:35.003Z,18.6
2023-05-18T18:10:31.357Z,18.1
2023-05-18T18:15:27.682Z,17.8
2023-05-18T18:16:41.902Z,18
2023-05-18T18:21:38.411Z,17.7
2023-05-18T18:26:35.189Z,17
2023-05-18T18:31:31.464Z,16.9
2023-05-18T18:37:42.317Z,16.9
2023-05-18T18:42:38.687Z,16.5
2023-05-18T18:47:35.342Z,16
2023-05-18T18:52:31.694Z,15.8
2023-05-18T18:58:42.539Z,15.4
2023-05-18T19:03:38.943Z,15.2
2023-05-18T19:08:35.540Z,14.9
2023-05-18T19:13:31.998Z,15
2023-05-18T19:19:42.893Z,14.6
2023-05-18T19:24:39.263Z,14.1
2023-05-18T19:29:35.788Z,13.8
2023-05-18T19:34:32.249Z,13.7
2023-05-18T19:39:28.788Z,13.6
2023-05-18T19:45:39.513Z,13.5
2023-05-18T19:50:36.009Z,13.3
2023-05-18T19:55:32.694Z,13.4
2023-05-18T20:00:29.113Z,13.2
2023-05-18T20:06:39.795Z,13.2
2023-05-18T20:21:29.323Z,12.6
2023-05-18T20:27:40.045Z,12.7
2023-05-18T20:32:36.835Z,12.6
2023-05-18T20:37:33.247Z,12.4
2023-05-18T20:48:40.230Z,12.3
2023-05-18T20:53:36.914Z,12.2
2023-05-18T20:58:33.386Z,12
2023-05-18T21:03:29.976Z,12.1
2023-05-18T21:09:40.679Z,11.9
2023-05-18T21:14:37.064Z,11.9
2023-05-18T21:19:33.700Z,11.8
2023-05-18T21:24:30.114Z,11.8
2023-05-18T21:30:40.761Z,11.8
2023-05-18T21:35:37.521Z,11.7
2023-05-18T21:40:34.073Z,11.5
2023-05-18T21:45:30.682Z,11.4
2023-05-18T21:51:41.168Z,11.3
2023-05-18T21:56:37.639Z,11.2
2023-05-18T22:01:34.318Z,11
2023-05-18T22:06:30.674Z,10.9
2023-05-18T22:12:41.332Z,10.8
2023-05-18T22:17:37.916Z,10.7
2023-05-18T22:22:34.425Z,10.6
2023-05-18T22:27:30.936Z,10.4
2023-05-18T22:33:41.640Z,10.4
2023-05-18T22:38:38.195Z,10.4
2023-05-18T22:43:34.764Z,10.3
2023-05-18T22:48:31.168Z,10.2
2023-05-18T22:54:41.880Z,10.1
2023-05-18T22:59:38.417Z,10
2023-05-18T23:04:35.070Z,9.9
2023-05-18T23:09:32.014Z,10
2023-05-18T23:15:42.150Z,10.1
2023-05-18T23:20:38.756Z,10
2023-05-18T23:25:35.345Z,10
2023-05-18T23:30:31.955Z,10
2023-05-18T23:36:42.471Z,9.9
2023-05-18T23:41:38.933Z,9.8
2023-05-18T23:46:35.549Z,9.7
2023-05-18T23:51:32.183Z,9.5
2023-05-18T23:56:28.549Z,9.3
